createdAt,value
2019-03-28T00:00:47.033Z,35.73
2019-03-28T00:03:20.843Z,37.20
2019-03-28T00:05:53.772Z,32.17
2019-03-28T00:08:26.453Z,41.37
2019-03-28T00:10:59.023Z,37.28
2019-03-28T00:13:31.763Z,33.58
2019-03-28T00:16:04.644Z,34.65
2019-03-28T00:18:37.184Z,44.15
2019-03-28T00:21:10.113Z,39.92
2019-03-28T00:24:01.569Z,35.50
2019-03-28T00:26:34.424Z,38.92
2019-03-28T00:29:07.212Z,27.95
2019-03-28T00:31:39.903Z,31.37
2019-03-28T00:34:13.976Z,36.80
2019-03-28T00:36:46.656Z,38.90
2019-03-28T00:39:19.343Z,38.50
2019-03-28T00:41:51.843Z,37.85
2019-03-28T00:44:24.482Z,44.85
2019-03-28T00:46:57.167Z,35.25
2019-03-28T00:49:29.862Z,43.30
2019-03-28T00:52:03.503Z,31.30
2019-03-28T00:54:35.962Z,36.60
2019-03-28T00:57:08.700Z,31.60
2019-03-28T00:59:41.197Z,32.33
2019-03-28T01:02:14.345Z,31.70
2019-03-28T01:04:47.220Z,37.48
2019-03-28T01:07:19.982Z,35.33
2019-03-28T01:09:52.961Z,36.53
2019-03-28T01:12:25.848Z,41.42
2019-03-28T01:14:58.663Z,38.05
2019-03-28T01:17:31.573Z,32.05
2019-03-28T01:20:04.402Z,35.05
2019-03-28T01:22:37.302Z,45.80
2019-03-28T01:25:10.213Z,38.15
2019-03-28T01:27:43.153Z,34.50
2019-03-28T01:30:16.037Z,36.33
2019-03-28T01:32:49.034Z,30.57
2019-03-28T01:35:21.909Z,39.15
2019-03-28T01:37:54.718Z,30.68
2019-03-28T01:40:27.183Z,35.73
2019-03-28T01:42:59.784Z,30.20
2019-03-28T01:45:32.780Z,34.27
2019-03-28T01:48:06.034Z,37.67
2019-03-28T01:50:38.798Z,42.43
2019-03-28T01:53:11.295Z,34.35
2019-03-28T01:55:43.827Z,32.40
2019-03-28T01:58:16.435Z,38.65
2019-03-28T02:00:48.966Z,33.80
2019-03-28T02:03:22.613Z,38.80
2019-03-28T02:05:55.132Z,29.65
2019-03-28T02:08:27.546Z,36.00
2019-03-28T02:11:00.036Z,31.77
2019-03-28T02:13:32.614Z,35.73
2019-03-28T02:16:05.402Z,37.53
2019-03-28T02:18:37.913Z,40.08
2019-03-28T02:21:10.673Z,37.25
2019-03-28T02:23:43.226Z,36.20
2019-03-28T02:26:15.950Z,36.35
2019-03-28T02:28:48.673Z,35.43
2019-03-28T02:31:21.184Z,32.75
2019-03-28T02:33:53.673Z,35.13
2019-03-28T02:36:26.229Z,37.83
2019-03-28T02:38:58.933Z,27.70
2019-03-28T02:41:31.514Z,33.78
2019-03-28T02:44:04.073Z,31.60
2019-03-28T02:46:36.665Z,25.55
2019-03-28T02:49:09.181Z,39.48
2019-03-28T02:51:41.942Z,30.65
2019-03-28T02:54:14.586Z,35.58
2019-03-28T02:56:47.162Z,30.02
2019-03-28T02:59:19.695Z,37.42
2019-03-28T03:01:53.354Z,37.53
2019-03-28T03:04:25.785Z,41.53
2019-03-28T03:06:58.433Z,35.00
2019-03-28T03:09:31.278Z,38.85
2019-03-28T03:12:03.967Z,39.03
2019-03-28T03:14:37.525Z,35.23
2019-03-28T03:17:10.318Z,35.63
2019-03-28T03:19:42.913Z,27.05
2019-03-28T03:22:15.454Z,33.90
2019-03-28T03:24:48.873Z,33.88
2019-03-28T03:27:21.503Z,33.65
2019-03-28T03:29:54.423Z,29.95
2019-03-28T03:32:27.715Z,35.10
2019-03-28T03:35:01.574Z,31.73
2019-03-28T03:37:34.837Z,36.03
2019-03-28T03:40:08.838Z,32.00
2019-03-28T03:42:41.413Z,32.45
2019-03-28T03:45:14.364Z,31.27
2019-03-28T03:47:47.036Z,33.98
2019-03-28T03:50:28.721Z,28.12
2019-03-28T03:53:01.453Z,35.05
2019-03-28T03:55:34.199Z,28.70
2019-03-28T03:58:15.335Z,30.48
2019-03-28T04:00:41.315Z,35.68
2019-03-28T04:03:14.284Z,37.25
2019-03-28T04:05:47.138Z,33.33
2019-03-28T04:08:20.955Z,34.60
2019-03-28T04:10:53.828Z,28.15
2019-03-28T04:13:26.760Z,34.48
2019-03-28T04:15:59.554Z,28.30
2019-03-28T04:18:32.793Z,29.30
2019-03-28T04:21:05.722Z,30.97
2019-03-28T04:23:38.975Z,35.95
2019-03-28T04:26:11.887Z,30.05
2019-03-28T04:28:45.114Z,27.22
2019-03-28T04:31:18.364Z,27.55
2019-03-28T04:33:51.424Z,27.90
2019-03-28T04:36:24.433Z,31.23
2019-03-28T04:38:57.387Z,31.35
2019-03-28T04:41:30.205Z,29.87
2019-03-28T04:44:03.135Z,32.03
2019-03-28T04:46:35.844Z,31.55
2019-03-28T04:49:08.823Z,35.03
2019-03-28T04:51:41.884Z,35.88
2019-03-28T04:54:14.633Z,39.67
2019-03-28T04:56:47.403Z,31.00
2019-03-28T04:59:20.026Z,41.28
2019-03-28T05:02:02.465Z,35.83
2019-03-28T05:04:27.426Z,30.52
2019-03-28T05:07:00.232Z,34.43
2019-03-28T05:09:33.014Z,29.52
2019-03-28T05:12:05.897Z,29.82
2019-03-28T05:14:38.881Z,32.63
2019-03-28T05:17:11.773Z,25.70
2019-03-28T05:19:44.723Z,28.02
2019-03-28T05:22:17.793Z,31.55
2019-03-28T05:24:51.063Z,34.03
2019-03-28T05:27:23.784Z,31.42
2019-03-28T05:29:56.543Z,34.73
2019-03-28T05:32:29.462Z,32.38
2019-03-28T05:35:02.127Z,32.63
2019-03-28T05:37:34.865Z,31.05
2019-03-28T05:40:09.034Z,33.40
2019-03-28T05:42:41.897Z,30.65
2019-03-28T05:45:14.814Z,30.88
2019-03-28T05:47:47.463Z,35.03
2019-03-28T05:50:20.307Z,32.13
2019-03-28T05:52:52.954Z,34.25
2019-03-28T05:55:25.632Z,31.00
2019-03-28T05:57:58.253Z,33.28
2019-03-28T06:00:31.303Z,30.97
2019-03-28T06:03:03.953Z,33.92
2019-03-28T06:05:36.534Z,29.65
2019-03-28T06:08:09.083Z,33.15
2019-03-28T06:10:41.603Z,31.20
2019-03-28T06:13:14.603Z,34.25
2019-03-28T06:15:47.123Z,31.97
2019-03-28T06:18:20.345Z,26.95
2019-03-28T06:20:53.073Z,26.50
2019-03-28T06:23:25.633Z,27.95
2019-03-28T06:25:58.149Z,30.62
2019-03-28T06:28:30.662Z,27.70
2019-03-28T06:31:03.333Z,27.87
2019-03-28T06:33:38.485Z,29.07
2019-03-28T06:36:10.754Z,27.60
2019-03-28T06:38:43.353Z,22.32
2019-03-28T06:41:16.334Z,25.97
2019-03-28T06:43:48.983Z,25.08
2019-03-28T06:46:21.803Z,22.52
2019-03-28T06:48:55.328Z,21.00
2019-03-28T06:51:31.173Z,25.85
2019-03-28T06:54:04.427Z,22.80
2019-03-28T06:56:37.272Z,24.55
2019-03-28T06:59:09.969Z,24.25
2019-03-28T07:01:42.493Z,20.27
2019-03-28T07:04:14.993Z,19.30
2019-03-28T07:06:47.736Z,20.48
2019-03-28T07:09:20.574Z,18.12
2019-03-28T07:11:53.267Z,18.92
2019-03-28T07:14:25.966Z,17.42
2019-03-28T07:16:58.515Z,20.55
2019-03-28T07:19:31.245Z,17.50
2019-03-28T07:22:03.763Z,21.60
2019-03-28T07:24:36.893Z,21.80
2019-03-28T07:27:09.513Z,16.62
2019-03-28T07:29:50.645Z,19.80
2019-03-28T07:32:17.273Z,17.37
2019-03-28T07:37:36.332Z,19.20
2019-03-28T07:40:09.314Z,17.62
2019-03-28T07:42:41.933Z,18.17
2019-03-28T07:45:16.082Z,17.40
2019-03-28T07:47:48.846Z,20.82
2019-03-28T07:50:21.574Z,23.77
2019-03-28T07:52:54.164Z,23.55
2019-03-28T07:55:26.662Z,19.67
2019-03-28T07:57:59.620Z,22.75
2019-03-28T08:00:32.422Z,21.65
2019-03-28T08:03:05.442Z,21.57
2019-03-28T08:05:38.152Z,21.15
2019-03-28T08:08:10.674Z,16.90
2019-03-28T08:10:43.214Z,14.93
2019-03-28T08:13:15.824Z,16.95
2019-03-28T08:15:48.538Z,16.65
2019-03-28T08:18:23.759Z,16.32
2019-03-28T08:20:55.602Z,18.10
2019-03-28T08:23:28.206Z,17.95
2019-03-28T08:26:01.826Z,18.45
2019-03-28T08:28:34.534Z,16.42
2019-03-28T08:31:06.982Z,17.87
2019-03-28T08:33:41.703Z,17.67
2019-03-28T08:36:16.082Z,16.75
2019-03-28T08:38:52.523Z,15.18
2019-03-28T08:41:26.092Z,13.30
2019-03-28T08:43:58.665Z,14.10
2019-03-28T08:46:31.353Z,14.60
2019-03-28T08:49:03.964Z,13.28
2019-03-28T08:51:36.553Z,13.95
2019-03-28T08:54:09.092Z,15.65
2019-03-28T08:56:42.702Z,15.00
2019-03-28T08:59:15.263Z,15.40
2019-03-28T09:01:48.774Z,13.32
2019-03-28T09:04:21.972Z,12.75
2019-03-28T09:06:55.106Z,11.28
2019-03-28T09:09:27.994Z,14.87
2019-03-28T09:12:01.765Z,13.78
2019-03-28T09:14:34.743Z,12.58
2019-03-28T09:17:07.493Z,16.50
2019-03-28T09:19:40.206Z,13.78
2019-03-28T09:22:12.864Z,13.62
2019-03-28T09:24:45.962Z,15.45
2019-03-28T09:27:18.964Z,16.42
2019-03-28T09:29:51.673Z,11.70
2019-03-28T09:32:24.873Z,11.85
2019-03-28T09:34:58.386Z,13.40
2019-03-28T09:37:31.453Z,12.37
2019-03-28T09:40:04.337Z,11.60
2019-03-28T09:42:36.893Z,11.68
2019-03-28T09:45:09.657Z,10.20
2019-03-28T09:47:42.913Z,10.72
2019-03-28T09:50:15.643Z,9.83
2019-03-28T09:52:48.354Z,9.15
2019-03-28T09:55:20.907Z,10.40
2019-03-28T09:57:54.202Z,10.60
2019-03-28T10:00:27.101Z,11.10
2019-03-28T10:02:59.773Z,12.53
2019-03-28T10:05:33.202Z,9.80
2019-03-28T10:08:06.061Z,10.88
2019-03-28T10:10:38.722Z,10.43
2019-03-28T10:13:11.442Z,7.85
2019-03-28T10:15:44.242Z,9.70
2019-03-28T10:18:16.826Z,12.33
2019-03-28T10:20:49.497Z,9.80
2019-03-28T10:23:22.153Z,11.83
2019-03-28T10:25:54.812Z,14.45
2019-03-28T10:28:27.433Z,10.93
2019-03-28T10:31:00.353Z,9.80
2019-03-28T10:33:33.332Z,7.78
2019-03-28T10:36:06.313Z,8.28
2019-03-28T10:38:38.918Z,14.87
2019-03-28T10:41:11.622Z,30.62
2019-03-28T10:43:44.154Z,52.95
2019-03-28T10:46:18.024Z,27.52
2019-03-28T10:48:54.348Z,18.48
2019-03-28T10:51:25.705Z,13.50
2019-03-28T10:53:58.253Z,14.28
2019-03-28T10:56:30.814Z,10.72
2019-03-28T10:59:04.603Z,10.85
2019-03-28T11:01:49.775Z,8.33
2019-03-28T11:04:11.608Z,12.75
2019-03-28T11:06:44.592Z,9.05
2019-03-28T11:09:17.194Z,9.33
2019-03-28T11:11:49.753Z,9.50
2019-03-28T11:14:22.293Z,9.60
2019-03-28T11:16:55.962Z,9.43
2019-03-28T11:19:28.714Z,12.90
2019-03-28T11:22:01.344Z,10.15
2019-03-28T11:24:34.211Z,13.40
2019-03-28T11:27:07.022Z,12.47
2019-03-28T11:29:39.821Z,13.88
2019-03-28T11:32:12.752Z,10.75
2019-03-28T11:34:45.640Z,10.18
2019-03-28T11:37:25.907Z,10.82
2019-03-28T11:39:53.273Z,11.53
2019-03-28T11:42:26.263Z,7.17
2019-03-28T11:44:59.173Z,9.35
2019-03-28T11:47:31.773Z,8.50
2019-03-28T11:50:04.977Z,9.10
2019-03-28T11:52:37.603Z,11.90
2019-03-28T11:55:12.546Z,8.43
2019-03-28T11:57:45.003Z,8.60
2019-03-28T12:00:18.955Z,12.13
2019-03-28T12:02:51.693Z,11.30
2019-03-28T12:05:24.330Z,9.55
2019-03-28T12:07:56.845Z,9.18
2019-03-28T12:10:29.504Z,26.77
2019-03-28T12:13:03.023Z,26.20
2019-03-28T12:15:35.673Z,34.83
2019-03-28T12:18:08.392Z,40.38
2019-03-28T12:20:41.067Z,30.05
2019-03-28T12:23:13.713Z,34.20
2019-03-28T12:25:47.426Z,24.37
2019-03-28T12:28:20.164Z,27.77
2019-03-28T12:30:53.023Z,14.75
2019-03-28T12:33:25.690Z,17.12
2019-03-28T12:35:58.553Z,19.75
2019-03-28T12:38:31.813Z,16.50
2019-03-28T12:41:04.827Z,18.40
2019-03-28T12:43:37.362Z,23.12
2019-03-28T12:46:10.196Z,28.47
2019-03-28T12:48:42.682Z,22.52
2019-03-28T12:51:15.172Z,18.30
2019-03-28T12:53:47.713Z,17.95
2019-03-28T12:56:20.403Z,16.95
2019-03-28T12:58:52.993Z,18.45
2019-03-28T13:01:26.493Z,19.85
2019-03-28T13:03:59.152Z,15.20
2019-03-28T13:06:32.163Z,15.48
2019-03-28T13:09:07.249Z,13.05
2019-03-28T13:11:40.401Z,14.70
2019-03-28T13:14:13.334Z,11.60
2019-03-28T13:16:47.346Z,13.05
2019-03-28T13:19:20.286Z,12.40
2019-03-28T13:21:52.963Z,15.78
2019-03-28T13:24:25.715Z,17.60
2019-03-28T13:26:58.703Z,16.82
2019-03-28T13:29:32.205Z,14.40
2019-03-28T13:32:06.573Z,14.40
2019-03-28T13:34:39.263Z,14.87
2019-03-28T13:37:11.903Z,13.95
2019-03-28T13:39:44.497Z,13.58
2019-03-28T13:42:16.973Z,16.35
2019-03-28T13:44:49.664Z,13.68
2019-03-28T13:47:22.263Z,13.90
2019-03-28T13:49:54.778Z,12.60
2019-03-28T13:52:27.642Z,11.22
2019-03-28T13:55:00.543Z,12.18
2019-03-28T13:57:34.563Z,10.98
2019-03-28T14:00:08.061Z,10.45
2019-03-28T14:02:54.636Z,15.95
2019-03-28T14:05:15.214Z,9.53
2019-03-28T14:07:47.974Z,11.45
2019-03-28T14:10:23.433Z,8.83
2019-03-28T14:12:56.136Z,7.72
2019-03-28T14:15:30.043Z,13.18
2019-03-28T14:18:02.683Z,13.00
2019-03-28T14:20:35.302Z,8.63
2019-03-28T14:23:08.157Z,8.98
2019-03-28T14:25:40.692Z,11.15
2019-03-28T14:28:13.373Z,9.35
2019-03-28T14:30:45.922Z,13.15
2019-03-28T14:33:18.563Z,12.23
2019-03-28T14:35:51.063Z,9.70
2019-03-28T14:38:23.684Z,12.45
2019-03-28T14:40:58.404Z,11.03
2019-03-28T14:43:30.622Z,12.45
2019-03-28T14:46:03.173Z,12.85
2019-03-28T14:48:35.843Z,12.93
2019-03-28T14:51:08.629Z,13.30
2019-03-28T14:53:41.103Z,13.40
2019-03-28T14:56:14.254Z,12.15
2019-03-28T14:58:50.695Z,11.40
2019-03-28T15:01:23.156Z,9.58
2019-03-28T15:03:55.753Z,9.88
2019-03-28T15:06:28.400Z,10.23
2019-03-28T15:09:00.872Z,9.65
2019-03-28T15:11:35.192Z,9.45
2019-03-28T15:14:07.915Z,9.85
2019-03-28T15:16:40.662Z,9.53
2019-03-28T15:19:14.266Z,12.28
2019-03-28T15:21:46.905Z,11.57
2019-03-28T15:24:19.682Z,10.05
2019-03-28T15:26:52.284Z,6.85
2019-03-28T15:29:24.802Z,10.55
2019-03-28T15:31:57.393Z,7.50
2019-03-28T15:34:29.952Z,8.48
2019-03-28T15:37:03.873Z,8.75
2019-03-28T15:39:36.513Z,7.22
2019-03-28T15:42:11.562Z,7.40
2019-03-28T15:44:44.136Z,10.58
2019-03-28T15:47:17.617Z,7.83
2019-03-28T15:49:50.340Z,10.25
2019-03-28T15:52:23.052Z,9.20
2019-03-28T15:54:55.760Z,11.15
2019-03-28T15:57:29.343Z,12.20
2019-03-28T16:00:01.843Z,11.78
2019-03-28T16:02:35.929Z,11.90
2019-03-28T16:05:08.732Z,13.32
2019-03-28T16:07:41.812Z,13.32
2019-03-28T16:10:15.191Z,13.15
2019-03-28T16:12:47.903Z,10.40
2019-03-28T16:15:20.793Z,11.40
2019-03-28T16:17:53.526Z,12.82
2019-03-28T16:20:26.112Z,13.05
2019-03-28T16:22:58.834Z,15.00
2019-03-28T16:25:31.444Z,12.43
2019-03-28T16:28:03.973Z,15.63
2019-03-28T16:30:38.072Z,11.63
2019-03-28T16:33:10.823Z,10.80
2019-03-28T16:35:43.571Z,8.73
2019-03-28T16:38:16.702Z,7.15
2019-03-28T16:40:49.392Z,10.32
2019-03-28T16:43:21.932Z,10.13
2019-03-28T16:45:55.563Z,9.30
2019-03-28T16:48:28.173Z,13.25
2019-03-28T16:51:00.662Z,10.48
2019-03-28T16:53:33.193Z,13.53
2019-03-28T16:56:05.662Z,22.55
2019-03-28T16:58:38.292Z,19.90
2019-03-28T17:01:10.896Z,17.45
2019-03-28T17:03:43.738Z,19.25
2019-03-28T17:06:16.933Z,17.27
2019-03-28T17:08:50.772Z,20.68
2019-03-28T17:11:23.784Z,18.37
2019-03-28T17:13:56.703Z,25.17
2019-03-28T17:16:29.493Z,32.95
2019-03-28T17:19:02.722Z,38.55
2019-03-28T17:21:35.273Z,50.45
2019-03-28T17:24:07.882Z,58.52
2019-03-28T17:26:40.476Z,51.15
2019-03-28T17:29:13.093Z,58.17
2019-03-28T17:31:45.682Z,56.28
2019-03-28T17:34:18.340Z,63.55
2019-03-28T17:36:51.115Z,60.63
2019-03-28T17:39:23.814Z,54.63
2019-03-28T17:41:57.645Z,56.50
2019-03-28T17:44:30.515Z,67.85
2019-03-28T17:47:03.422Z,47.60
2019-03-28T17:49:36.293Z,51.85
2019-03-28T17:52:08.965Z,100.95
2019-03-28T17:54:41.564Z,83.47
2019-03-28T17:57:14.074Z,75.45
2019-03-28T17:59:46.944Z,109.87
2019-03-28T18:02:19.532Z,145.22
2019-03-28T18:04:52.333Z,120.40
2019-03-28T18:07:24.924Z,134.65
2019-03-28T18:09:57.612Z,117.57
2019-03-28T18:12:30.252Z,87.97
2019-03-28T18:15:02.886Z,91.55
2019-03-28T18:17:35.592Z,78.47
2019-03-28T18:20:08.743Z,85.47
2019-03-28T18:22:41.333Z,81.75
2019-03-28T18:25:14.153Z,71.55
2019-03-28T18:27:48.142Z,76.77
2019-03-28T18:30:21.043Z,90.22
2019-03-28T18:32:53.724Z,115.25
2019-03-28T18:35:26.453Z,105.37
2019-03-28T18:37:58.992Z,131.57
2019-03-28T18:40:33.203Z,99.95
2019-03-28T18:43:06.293Z,84.60
2019-03-28T18:45:41.162Z,72.80
2019-03-28T18:48:27.385Z,81.78
2019-03-28T18:50:48.774Z,52.38
2019-03-28T18:53:21.835Z,92.53
2019-03-28T18:55:55.171Z,76.62
2019-03-28T18:58:28.272Z,62.40
2019-03-28T19:01:00.832Z,51.15
2019-03-28T19:03:34.662Z,48.95
2019-03-28T19:06:07.113Z,44.67
2019-03-28T19:08:39.692Z,51.65
2019-03-28T19:11:12.313Z,50.83
2019-03-28T19:13:44.962Z,38.45
2019-03-28T19:16:17.564Z,45.48
2019-03-28T19:18:50.315Z,63.85
2019-03-28T19:21:23.114Z,53.92
2019-03-28T19:23:56.083Z,64.47
2019-03-28T19:26:28.692Z,58.63
2019-03-28T19:29:01.442Z,57.10
2019-03-28T19:31:34.207Z,43.25
2019-03-28T19:34:06.995Z,72.82
2019-03-28T19:36:39.803Z,71.53
2019-03-28T19:39:14.573Z,59.38
2019-03-28T19:41:47.313Z,67.35
2019-03-28T19:44:20.223Z,64.95
2019-03-28T19:46:53.042Z,66.00
2019-03-28T19:49:25.753Z,62.65
2019-03-28T19:51:58.392Z,52.88
2019-03-28T19:54:31.192Z,47.55
2019-03-28T19:57:03.743Z,48.98
2019-03-28T19:59:36.591Z,50.98
2019-03-28T20:02:09.093Z,50.70
2019-03-28T20:04:43.826Z,41.68
2019-03-28T20:07:21.980Z,41.00
2019-03-28T20:09:50.950Z,36.03
2019-03-28T20:12:23.703Z,35.85
2019-03-28T20:14:56.412Z,41.05
2019-03-28T20:17:29.032Z,44.27
2019-03-28T20:20:01.788Z,36.73
2019-03-28T20:22:34.184Z,35.95
2019-03-28T20:25:07.415Z,37.40
2019-03-28T20:27:40.093Z,31.60
2019-03-28T20:30:13.324Z,40.73
2019-03-28T20:32:46.302Z,39.80
2019-03-28T20:35:20.191Z,30.92
2019-03-28T20:37:53.072Z,31.73
2019-03-28T20:40:25.702Z,46.13
2019-03-28T20:42:58.342Z,25.48
2019-03-28T20:45:30.902Z,30.37
2019-03-28T20:48:03.343Z,29.82
2019-03-28T20:50:36.025Z,29.20
2019-03-28T20:53:08.582Z,41.15
2019-03-28T20:55:41.123Z,26.07
2019-03-28T20:58:13.611Z,29.40
2019-03-28T21:00:47.888Z,30.43
2019-03-28T21:03:20.534Z,29.50
2019-03-28T21:05:53.011Z,36.63
2019-03-28T21:08:25.583Z,45.10
2019-03-28T21:10:58.122Z,41.08
2019-03-28T21:13:30.632Z,46.20
2019-03-28T21:16:03.313Z,56.98
2019-03-28T21:18:35.832Z,49.90
2019-03-28T21:21:08.532Z,46.35
2019-03-28T21:23:41.515Z,51.20
2019-03-28T21:26:15.031Z,49.15
2019-03-28T21:28:47.839Z,45.83
2019-03-28T21:31:21.493Z,44.60
2019-03-28T21:33:55.062Z,55.12
2019-03-28T21:36:30.451Z,57.75
2019-03-28T21:39:06.862Z,49.15
2019-03-28T21:41:39.830Z,60.65
2019-03-28T21:44:12.652Z,59.23
2019-03-28T21:46:46.393Z,81.53
2019-03-28T21:49:19.227Z,59.23
2019-03-28T21:51:51.790Z,66.80
2019-03-28T21:54:25.026Z,54.93
2019-03-28T21:56:57.925Z,56.13
2019-03-28T21:59:30.504Z,53.40
2019-03-28T22:02:03.063Z,57.93
2019-03-28T22:04:35.673Z,57.13
2019-03-28T22:07:08.312Z,71.70
2019-03-28T22:09:41.363Z,59.10
2019-03-28T22:12:15.453Z,53.87
2019-03-28T22:14:48.783Z,55.70
2019-03-28T22:17:21.702Z,55.70
2019-03-28T22:19:55.892Z,88.33
2019-03-28T22:22:28.901Z,75.85
2019-03-28T22:25:02.633Z,61.55
2019-03-28T22:27:35.511Z,59.85
2019-03-28T22:30:09.492Z,48.92
2019-03-28T22:32:41.962Z,46.65
2019-03-28T22:35:15.163Z,50.28
2019-03-28T22:37:48.252Z,63.95
2019-03-28T22:40:21.563Z,46.30
2019-03-28T22:42:54.134Z,47.35
2019-03-28T22:45:26.602Z,44.05
2019-03-28T22:48:10.092Z,51.68
2019-03-28T22:50:33.722Z,44.38
2019-03-28T22:53:06.665Z,52.80
2019-03-28T22:55:39.748Z,58.75
2019-03-28T22:58:12.813Z,43.33
2019-03-28T23:00:47.303Z,50.10
2019-03-28T23:03:21.382Z,45.20
2019-03-28T23:05:54.882Z,44.08
2019-03-28T23:08:27.572Z,46.10
2019-03-28T23:11:00.062Z,44.95
2019-03-28T23:13:37.992Z,50.00
2019-03-28T23:16:10.709Z,49.58
2019-03-28T23:18:43.262Z,49.70
2019-03-28T23:21:16.208Z,52.62
2019-03-28T23:23:49.382Z,58.00
2019-03-28T23:26:21.863Z,61.18
2019-03-28T23:28:54.362Z,71.53
2019-03-28T23:31:27.146Z,60.15
2019-03-28T23:33:59.692Z,65.95
2019-03-28T23:36:32.862Z,56.80
2019-03-28T23:39:07.013Z,55.80
2019-03-28T23:41:41.053Z,59.15
2019-03-28T23:44:13.812Z,68.80
2019-03-28T23:46:46.392Z,77.35
2019-03-28T23:49:19.222Z,75.90
2019-03-28T23:51:51.925Z,102.65
2019-03-28T23:54:24.624Z,107.05
2019-03-28T23:56:57.172Z,89.80
2019-03-28T23:59:29.593Z,88.80
